KSHN/SHN METAR and TAF weather

Enter ICAO airport designator
Station Type Date Time Source
KSHN METAR 2018/12/11 18:48 UTC NOAA

KSHN 111848Z AUTO 34004KT 2SM RA BR BKN009 OVC013 07/05 A2977 RMK AO2 CIG 006V011 P0020


Station Type Date Time Source
KSHN Decoded METAR 2018/12/11 18:48 UTC NOAA

SHELTON SANDERSON FIELD, WA, United States (KSHN) 47-14N 123-08W 82M
Dec 11, 2018 - 01:48 PM EST / 2018.12.11 1848 UTC
Wind: from the NNW (340 degrees) at 5 MPH (4 KT):0
Visibility: 2 mile(s):0
Sky conditions: overcast
Weather: rain; mist
Precipitation last hour: 0.20 inches
Temperature: 44 F (7 C)
Dew Point: 41 F (5 C)
Relative Humidity: 87%
Pressure (altimeter): 29.77 in. Hg (1008 hPa)
ob: KSHN 111848Z AUTO 34004KT 2SM RA BR BKN009 OVC013 07/05 A2977 RMK AO2 CIG 006V011 P0020
cycle: 19

Station Type Date Time Source
KSHN TAF UTC NOAA

Error!


Example: see airport list